Augusta, MT

12:38 PM MDT on September 18, 2014 (GMT -0600)
Upper Elk Creek | Change Station
CLOSE
Current Station
Personal Weather Station
Location: Augusta, MT
Elevation: 5213 ft
Nearby Weather Stations

Elev 5213 ft 47.33 °N, 112.58 °W | Updated 6 seconds ago

Overcast
Overcast
67.6 °F
Feels Like 67.6 °F
N
12.4
Wind Variable Wind from SSE
Gusts 13.0 mph

Today
High -- | Low -- °F
--% Chance of Precip.
Yesterday
High -- | Low -- °F
Precip. -- in
7:12 AM 7:36 PM
Waning Crescent, 25% visible
Pressure 29.66 in
Visibility 10.0 miles
Clouds Clear
Dew Point 47 °F
Humidity 47%
Rainfall 0.00 in
Snow Depth 0 in , 1 in , 0 in
UV 6 out of 12
Pollen 7.60 out of 12
Air Quality Not available.
Flu Activity Not available.
METAR KGTF 181753Z 21016KT 10SM CLR 22/09 A2975 RMK AO2 PK WND 20027/1655 SLP044 T02170089 10217 20156 50009 $

More Conditions Fewer Conditions

Pressure 29.66 in
Visibility 10.0 miles
Clouds Clear
Dew Point 47 °F
Humidity 47%
Rainfall 0.00 in
Snow Depth 0 in , 1 in , 0 in
UV 6 out of 12
Pollen 7.60 out of 12
Air Quality Not available.
Flu Activity Not available.
METAR KGTF 181753Z 21016KT 10SM CLR 22/09 A2975 RMK AO2 PK WND 20027/1655 SLP044 T02170089 10217 20156 50009 $

More Conditions Fewer Conditions

10-Day Weather Forecast

Almanac

Astronomy

Sep. 18, 2014 Rise Set
Actual Time 7:12 AM MDT 7:36 PM MDT
Civil Twilight 6:41 AM MDT 8:06 PM MDT
Nautical Twilight 6:04 AM MDT 8:43 PM MDT
Astronomical Twilight 5:27 AM MDT 9:20 PM MDT
Moon 1:51 AM MDT 4:44 PM MDT
Length of Visible Light 13h 25m
Length of Day
12h 24m
Tomorrow will be 3m 23s shorter.
Waning Crescent, 25% of the Moon is Illuminated
Today
Waning Crescent
Sep 24
New
Oct 1
First Quarter
Oct 8
Full
Oct 15
Last Quarter

Today's Extremes

State Highs State Lows

Community

WunderPhotos

Upload Photos

1,754,417 photos uploaded!

WunderBlogs® & News

Nearby

Snow Depth

Station Depth Elevation
Black Bear 0 in 8150 ft
Porcupine 1 in 6500 ft
Stuart Mountain 0 in 7400 ft
Placer Basin 0 in 8830 ft
Dupuyer Creek 0 in 5750 ft

Earthquake Activity

City Distance Mag. Time & Date
No recent earthquake activity has been reported nearby.
Minimum magnitude displayed is 2.5.

Coastal Water Temperatures

Place Temperature
No Stations Reporting

Nearby Weather Stations